Time;durP1;ratioP1;P1;durP2;ratioP2;P2;SDS_P1;SDS_P2;PMS_P1;PMS_P2;Temp;Humidity;BMP_temperature;BMP_pressure;BME280_temperature;BME280_humidity;BME280_pressure;Samples;Min_cycle;Max_cycle;Signal;HPM_P1;HPM_P2
2021/04/27 00:01:10;;;;;;;4.32;3.55;;;3.60;99.90;;;;;;5030917;28;20267;-82
2021/04/27 00:03:36;;;;;;;5.90;3.30;;;3.60;99.90;;;;;;5031025;28;20190;-82
2021/04/27 00:06:03;;;;;;;4.38;3.72;;;3.60;99.90;;;;;;5030973;28;20219;-82
2021/04/27 00:08:29;;;;;;;3.42;3.10;;;3.60;99.90;;;;;;5030812;28;20293;-81
2021/04/27 00:10:55;;;;;;;3.75;3.40;;;3.50;99.90;;;;;;5030956;28;20206;-82
2021/04/27 00:13:22;;;;;;;3.42;3.13;;;3.50;99.90;;;;;;5030760;28;20198;-82
2021/04/27 00:15:48;;;;;;;5.70;3.70;;;3.50;99.90;;;;;;5030811;28;20658;-81
2021/04/27 00:18:14;;;;;;;5.03;3.05;;;3.50;99.90;;;;;;5030668;28;20245;-79
2021/04/27 00:20:40;;;;;;;4.85;3.67;;;3.40;99.90;;;;;;5030719;28;20195;-84
2021/04/27 00:23:07;;;;;;;6.32;3.65;;;3.40;99.90;;;;;;5030602;28;20232;-84
2021/04/27 00:25:33;;;;;;;5.15;4.15;;;3.30;99.90;;;;;;5030836;28;20281;-83
2021/04/27 00:27:59;;;;;;;4.85;3.55;;;3.40;99.90;;;;;;5030544;28;20717;-84
2021/04/27 00:30:27;;;;;;;6.68;4.05;;;3.40;99.90;;;;;;5030658;28;20195;-84
2021/04/27 00:32:55;;;;;;;5.82;4.30;;;3.40;99.90;;;;;;5030279;28;20195;-84
2021/04/27 00:35:21;;;;;;;4.82;3.80;;;3.40;99.90;;;;;;5030482;28;20653;-83
2021/04/27 00:37:47;;;;;;;12.05;5.20;;;3.40;99.90;;;;;;5030412;28;20672;-84
2021/04/27 00:40:16;;;;;;;4.72;4.05;;;3.30;99.90;;;;;;5030598;28;20286;-84
2021/04/27 00:42:45;;;;;;;4.85;4.40;;;3.30;99.90;;;;;;5030281;28;20661;-84
2021/04/27 00:45:13;;;;;;;4.57;3.80;;;3.30;99.90;;;;;;5030373;28;20588;-82
2021/04/27 00:47:39;;;;;;;7.82;4.72;;;3.30;99.90;;;;;;5028762;28;20233;-82
2021/04/27 00:50:08;;;;;;;6.80;4.78;;;3.20;99.90;;;;;;5030221;28;20230;-82
2021/04/27 00:52:35;;;;;;;7.10;5.40;;;3.20;99.90;;;;;;5030166;28;20235;-83
2021/04/27 00:55:02;;;;;;;4.72;4.20;;;3.20;99.90;;;;;;5029570;28;20222;-82
2021/04/27 00:57:28;;;;;;;4.68;3.78;;;3.20;99.90;;;;;;5030284;28;20281;-85
2021/04/27 00:59:55;;;;;;;6.78;4.40;;;3.20;99.90;;;;;;5030429;28;20261;-84
2021/04/27 01:02:21;;;;;;;6.13;4.00;;;3.10;99.90;;;;;;5030268;28;20254;-84
2021/04/27 01:04:48;;;;;;;8.05;4.70;;;3.10;99.90;;;;;;5030129;28;20222;-82
2021/04/27 01:07:19;;;;;;;7.95;6.07;;;3.20;99.90;;;;;;5030103;28;20653;-82
2021/04/27 01:09:48;;;;;;;11.88;6.75;;;3.10;99.90;;;;;;5030212;28;20219;-83
2021/04/27 01:12:19;;;;;;;8.85;5.97;;;3.10;99.90;;;;;;5029964;28;20684;-83
2021/04/27 01:14:49;;;;;;;11.40;5.55;;;3.20;99.90;;;;;;5029802;28;20289;-83
2021/04/27 01:17:20;;;;;;;9.50;5.97;;;3.10;99.90;;;;;;5029657;28;20243;-83
2021/04/27 01:19:55;;;;;;;8.50;5.82;;;3.00;99.90;;;;;;5029918;28;20231;-82
2021/04/27 01:22:43;;;;;;;8.40;6.45;;;3.00;99.90;;;;;;5030015;28;20228;-83
2021/04/27 01:25:13;;;;;;;10.07;7.00;;;3.00;99.90;;;;;;5029813;28;20244;-84
2021/04/27 01:27:40;;;;;;;12.55;6.82;;;2.90;99.90;;;;;;5029632;28;20669;-84
2021/04/27 01:30:08;;;;;;;14.65;8.52;;;2.90;99.90;;;;;;5029901;28;20227;-84
2021/04/27 01:32:35;;;;;;;14.13;8.45;;;2.90;99.90;;;;;;5029772;28;20194;-83
2021/04/27 01:35:02;;;;;;;13.07;8.40;;;2.80;99.90;;;;;;5029719;28;20277;-83
2021/04/27 01:37:28;;;;;;;14.10;8.05;;;2.80;99.90;;;;;;5029704;28;20222;-86
2021/04/27 01:39:54;;;;;;;9.85;5.47;;;2.80;99.90;;;;;;5029547;28;20726;-83
2021/04/27 01:42:20;;;;;;;10.75;6.80;;;2.70;99.90;;;;;;5029493;28;20661;-84
2021/04/27 01:44:47;;;;;;;8.02;4.53;;;2.70;99.90;;;;;;5029665;28;20222;-83
2021/04/27 01:47:15;;;;;;;8.07;4.40;;;2.80;99.90;;;;;;5029610;28;20617;-84
2021/04/27 01:49:43;;;;;;;9.32;4.60;;;2.80;99.90;;;;;;5029723;28;20656;-83
2021/04/27 01:52:09;;;;;;;8.20;4.70;;;2.80;99.90;;;;;;5029511;28;20277;-83
2021/04/27 01:54:35;;;;;;;8.13;5.28;;;2.70;99.90;;;;;;5029248;28;20273;-83
2021/04/27 01:57:01;;;;;;;8.40;5.10;;;2.80;99.90;;;;;;5029662;28;20279;-83
2021/04/27 01:59:27;;;;;;;8.75;5.10;;;2.70;99.90;;;;;;5029464;28;20218;-83
2021/04/27 02:01:54;;;;;;;10.82;4.90;;;2.70;99.90;;;;;;5029343;28;20233;-83
2021/04/27 02:04:22;;;;;;;6.22;4.20;;;2.70;99.90;;;;;;5029451;28;20226;-83
2021/04/27 02:06:48;;;;;;;9.07;3.53;;;2.70;99.90;;;;;;5030708;28;20281;-83
2021/04/27 02:09:15;;;;;;;6.80;4.53;;;2.70;99.90;;;;;;5032774;28;20286;-82
2021/04/27 02:11:43;;;;;;;5.90;4.43;;;2.70;99.90;;;;;;5032797;28;20194;-82
2021/04/27 02:14:12;;;;;;;5.43;3.13;;;2.70;99.90;;;;;;5032565;28;20191;-83
2021/04/27 02:16:43;;;;;;;4.65;2.90;;;2.70;99.90;;;;;;5032675;28;20187;-81
2021/04/27 02:19:10;;;;;;;3.95;3.55;;;2.70;99.90;;;;;;5032113;28;20265;-80
2021/04/27 02:21:38;;;;;;;3.47;3.08;;;2.70;99.90;;;;;;5032259;28;20279;-80
2021/04/27 02:24:06;;;;;;;5.68;2.63;;;2.70;99.90;;;;;;5032633;28;20226;-80
2021/04/27 02:26:33;;;;;;;4.63;2.97;;;2.70;99.90;;;;;;5033160;28;20191;-89
2021/04/27 02:29:01;;;;;;;2.83;2.20;;;2.70;99.90;;;;;;5033701;28;20253;-87
2021/04/27 02:31:29;;;;;;;3.42;2.30;;;2.60;99.90;;;;;;5033261;28;20203;-90
2021/04/27 02:33:55;;;;;;;3.30;2.25;;;2.60;99.90;;;;;;5032933;27;20696;-90
2021/04/27 02:36:22;;;;;;;3.72;2.55;;;2.60;99.90;;;;;;5032583;28;20247;-88
2021/04/27 02:38:48;;;;;;;3.47;2.80;;;2.60;99.90;;;;;;5032132;28;20253;-90
2021/04/27 02:41:14;;;;;;;3.45;2.70;;;2.60;99.90;;;;;;5032383;28;20282;-88
2021/04/27 02:43:41;;;;;;;2.83;2.63;;;2.50;99.90;;;;;;5033236;28;20190;-86
2021/04/27 02:46:07;;;;;;;3.25;2.60;;;2.50;99.90;;;;;;5031270;28;20187;-90
2021/04/27 02:48:34;;;;;;;3.40;2.65;;;2.50;99.90;;;;;;5032323;28;20191;-82
2021/04/27 02:51:01;;;;;;;5.90;2.88;;;2.40;99.90;;;;;;5032191;28;20214;-83
2021/04/27 02:53:28;;;;;;;6.68;2.70;;;2.40;99.90;;;;;;5031912;28;20201;-81
2021/04/27 02:55:55;;;;;;;6.38;2.90;;;2.40;99.90;;;;;;5031763;28;20187;-82
2021/04/27 02:58:21;;;;;;;3.80;2.05;;;2.40;99.90;;;;;;5031810;28;20676;-82
2021/04/27 03:00:48;;;;;;;5.05;2.90;;;2.40;99.90;;;;;;5042946;27;20384;-82
2021/04/27 03:03:15;;;;;;;3.60;2.63;;;2.40;99.90;;;;;;5050920;27;20538;-80
2021/04/27 03:05:41;;;;;;;3.97;2.97;;;2.30;99.90;;;;;;5038684;27;20224;-82
2021/04/27 03:08:07;;;;;;;3.67;2.75;;;2.30;99.90;;;;;;5033755;28;20187;-81
2021/04/27 03:10:35;;;;;;;3.63;2.75;;;2.30;99.90;;;;;;5034094;27;20187;-86
2021/04/27 03:13:01;;;;;;;3.88;3.35;;;2.30;99.90;;;;;;5031889;28;20676;-83
2021/04/27 03:15:27;;;;;;;6.45;3.58;;;2.30;99.90;;;;;;5031716;28;20225;-83
2021/04/27 03:17:54;;;;;;;4.25;2.90;;;2.20;99.90;;;;;;5048158;27;20192;-83
2021/04/27 03:20:20;;;;;;;3.53;2.80;;;2.20;99.90;;;;;;5031538;28;20309;-82
2021/04/27 03:22:46;;;;;;;3.08;2.80;;;2.10;99.90;;;;;;5030260;28;20269;-82
2021/04/27 03:25:14;;;;;;;5.35;2.95;;;2.10;99.90;;;;;;5031522;28;20195;-82
2021/04/27 03:27:41;;;;;;;6.50;2.95;;;2.10;99.90;;;;;;5043623;28;20226;-82
2021/04/27 03:30:09;;;;;;;4.65;3.00;;;2.10;99.90;;;;;;5051629;28;20561;-85
2021/04/27 03:32:35;;;;;;;5.00;2.45;;;2.10;99.90;;;;;;5051635;28;20190;-84
2021/04/27 03:35:03;;;;;;;4.20;3.05;;;2.00;99.90;;;;;;5051313;28;20281;-84
2021/04/27 03:37:29;;;;;;;5.07;3.20;;;2.00;99.90;;;;;;5051385;28;20751;-85
2021/04/27 03:39:55;;;;;;;4.85;3.08;;;2.00;99.90;;;;;;5051733;28;20695;-85
2021/04/27 03:42:21;;;;;;;3.78;2.95;;;2.00;99.90;;;;;;5051471;28;20232;-86
2021/04/27 03:44:48;;;;;;;3.78;2.30;;;2.00;99.90;;;;;;5051701;28;20657;-87
2021/04/27 03:47:14;;;;;;;4.63;2.67;;;2.00;99.90;;;;;;5051627;28;20293;-87
2021/04/27 03:49:40;;;;;;;3.40;2.72;;;2.00;99.90;;;;;;5051253;28;20221;-85
2021/04/27 03:52:06;;;;;;;2.45;2.08;;;2.10;99.90;;;;;;5051141;28;20240;-85
2021/04/27 03:54:32;;;;;;;3.08;2.42;;;2.10;99.90;;;;;;5051127;28;20298;-85
2021/04/27 03:56:58;;;;;;;2.92;2.42;;;2.10;99.90;;;;;;5050987;27;20230;-85
2021/04/27 03:59:25;;;;;;;4.15;2.70;;;2.20;99.90;;;;;;5050931;28;20217;-85
2021/04/27 04:01:52;;;;;;;3.85;2.53;;;2.20;99.90;;;;;;5051002;28;20253;-85
2021/04/27 04:04:18;;;;;;;3.90;2.45;;;2.30;99.90;;;;;;5050969;28;20239;-86
2021/04/27 04:06:44;;;;;;;3.15;2.85;;;2.30;99.90;;;;;;5050879;28;20229;-85
2021/04/27 04:09:10;;;;;;;4.07;3.08;;;2.40;99.90;;;;;;5051108;28;20193;-85
2021/04/27 04:11:37;;;;;;;4.78;2.55;;;2.50;99.90;;;;;;5050991;28;20222;-85
2021/04/27 04:14:04;;;;;;;6.28;3.55;;;2.50;99.90;;;;;;5045363;28;20662;-84
2021/04/27 04:16:30;;;;;;;5.20;3.30;;;2.60;99.90;;;;;;5030467;28;20219;-86
2021/04/27 04:18:56;;;;;;;5.90;3.80;;;2.60;99.90;;;;;;5030949;28;20268;-86
2021/04/27 04:21:23;;;;;;;4.78;2.95;;;2.70;99.90;;;;;;5031011;28;20282;-86
2021/04/27 04:23:50;;;;;;;6.05;3.03;;;2.80;99.90;;;;;;5030810;28;20229;-85
2021/04/27 04:26:16;;;;;;;3.72;3.42;;;2.80;99.90;;;;;;5030776;28;20240;-86
2021/04/27 04:28:42;;;;;;;6.25;3.85;;;2.90;99.90;;;;;;5030365;28;20218;-86
2021/04/27 04:31:08;;;;;;;5.35;3.90;;;2.90;99.90;;;;;;5028293;28;20607;-87
2021/04/27 04:33:34;;;;;;;9.10;5.85;;;3.00;99.90;;;;;;5031101;28;20645;-86
2021/04/27 04:36:02;;;;;;;4.70;3.25;;;3.10;99.90;;;;;;5030964;28;20287;-86
2021/04/27 04:38:28;;;;;;;2.80;2.60;;;3.10;99.90;;;;;;5030587;28;20218;-86
2021/04/27 04:40:54;;;;;;;9.65;3.17;;;3.20;99.90;;;;;;5030970;28;20281;-86
2021/04/27 04:43:20;;;;;;;5.15;3.67;;;3.40;99.90;;;;;;5030225;28;20557;-87
2021/04/27 04:45:47;;;;;;;5.50;3.00;;;3.50;99.90;;;;;;5029222;28;20234;-86
2021/04/27 04:48:13;;;;;;;3.42;3.05;;;3.60;99.90;;;;;;5030909;28;20535;-87
2021/04/27 04:50:40;;;;;;;4.95;2.65;;;3.70;99.90;;;;;;5030500;28;20198;-86
2021/04/27 04:53:07;;;;;;;4.82;2.85;;;3.70;99.90;;;;;;5030277;28;20220;-85
2021/04/27 04:55:34;;;;;;;8.27;3.25;;;3.70;99.90;;;;;;5029653;28;20190;-83
2021/04/27 04:58:00;;;;;;;11.98;3.65;;;3.80;99.90;;;;;;5030067;28;20605;-83
2021/04/27 05:00:27;;;;;;;5.10;3.40;;;3.90;99.90;;;;;;5029907;28;20366;-83
2021/04/27 05:02:53;;;;;;;3.92;3.03;;;3.90;99.90;;;;;;5030272;28;20218;-83
2021/04/27 05:05:19;;;;;;;4.65;2.45;;;4.00;99.90;;;;;;5030215;28;20187;-84
2021/04/27 05:07:47;;;;;;;4.28;2.80;;;4.10;99.90;;;;;;5030148;28;20195;-83
2021/04/27 05:10:16;;;;;;;4.60;3.20;;;4.20;99.90;;;;;;5029571;28;20198;-83
2021/04/27 05:12:43;;;;;;;3.55;2.80;;;4.30;99.90;;;;;;5029938;28;20218;-85
2021/04/27 05:15:10;;;;;;;3.10;2.80;;;4.30;99.90;;;;;;5030226;28;20327;-85
2021/04/27 05:17:37;;;;;;;3.75;2.95;;;4.50;99.90;;;;;;5029971;28;20217;-85
2021/04/27 05:20:04;;;;;;;5.13;3.50;;;4.60;99.90;;;;;;5029972;28;20226;-85
2021/04/27 05:22:31;;;;;;;3.15;2.78;;;4.80;99.90;;;;;;5029896;28;20752;-85
2021/04/27 05:24:57;;;;;;;3.47;2.70;;;5.00;99.90;;;;;;5029366;28;20194;-85
2021/04/27 05:27:24;;;;;;;4.63;3.13;;;5.20;99.90;;;;;;5029658;28;20228;-84
2021/04/27 05:29:51;;;;;;;4.03;3.13;;;5.60;99.90;;;;;;5029667;28;20698;-83
2021/04/27 05:32:17;;;;;;;3.47;3.17;;;5.90;99.90;;;;;;5029954;28;20218;-83
2021/04/27 05:34:43;;;;;;;2.90;2.70;;;6.20;99.90;;;;;;5029877;28;20190;-84
2021/04/27 05:37:09;;;;;;;3.60;2.85;;;6.50;99.90;;;;;;5029616;28;20285;-83
2021/04/27 05:39:36;;;;;;;2.95;2.65;;;6.90;99.90;;;;;;5029357;28;20317;-83
2021/04/27 05:42:04;;;;;;;5.40;3.53;;;7.10;99.90;;;;;;5031592;28;20281;-83
2021/04/27 05:44:31;;;;;;;2.80;2.47;;;7.30;99.90;;;;;;5033274;28;20247;-83
2021/04/27 05:46:57;;;;;;;3.35;2.75;;;7.50;99.90;;;;;;5033218;28;20301;-83
2021/04/27 05:49:23;;;;;;;3.28;2.33;;;7.70;99.90;;;;;;5033006;28;20705;-83
2021/04/27 05:51:49;;;;;;;5.32;3.00;;;7.90;99.90;;;;;;5033706;28;20230;-83
2021/04/27 05:54:15;;;;;;;2.97;2.75;;;8.10;99.90;;;;;;5033070;28;20229;-85
2021/04/27 05:56:41;;;;;;;4.32;2.35;;;8.30;99.90;;;;;;5033256;28;20281;-83
2021/04/27 05:59:10;;;;;;;2.13;2.00;;;8.30;98.70;;;;;;5033113;28;20211;-86
2021/04/27 06:01:37;;;;;;;2.50;2.30;;;8.40;97.90;;;;;;5033197;28;20299;-85
2021/04/27 06:04:03;;;;;;;3.70;2.50;;;8.50;97.80;;;;;;5033005;28;20186;-85
2021/04/27 06:06:34;;;;;;;2.53;2.22;;;8.70;97.00;;;;;;5033071;28;20233;-84
2021/04/27 06:09:01;;;;;;;2.67;2.30;;;9.00;96.70;;;;;;5032743;28;20206;-84
2021/04/27 06:11:27;;;;;;;2.40;2.20;;;9.30;96.60;;;;;;5033012;28;20198;-83
2021/04/27 06:13:53;;;;;;;2.30;2.10;;;9.40;95.20;;;;;;5033414;28;20456;-85
2021/04/27 06:16:19;;;;;;;3.78;2.08;;;9.60;94.70;;;;;;5032345;28;20420;-84
2021/04/27 06:18:45;;;;;;;3.17;2.30;;;9.70;94.10;;;;;;5032741;28;20249;-84
2021/04/27 06:21:13;;;;;;;2.80;2.45;;;9.80;94.50;;;;;;5032556;28;20496;-84
2021/04/27 06:23:39;;;;;;;2.60;1.80;;;10.00;93.70;;;;;;5032554;28;20748;-84
2021/04/27 06:26:05;;;;;;;2.70;2.20;;;10.20;93.10;;;;;;5032756;28;20424;-86
2021/04/27 06:28:31;;;;;;;3.50;2.20;;;10.40;92.30;;;;;;5032911;28;20449;-86
2021/04/27 06:30:57;;;;;;;2.50;1.87;;;10.60;91.40;;;;;;5032611;28;20456;-83
2021/04/27 06:33:24;;;;;;;2.60;1.73;;;10.90;91.40;;;;;;5032382;28;20544;-82
2021/04/27 06:35:51;;;;;;;2.83;2.60;;;11.20;90.00;;;;;;5032098;28;20449;-82
2021/04/27 06:38:18;;;;;;;2.70;1.90;;;11.30;87.70;;;;;;5031985;28;20501;-82
2021/04/27 06:40:45;;;;;;;2.73;1.80;;;11.40;86.80;;;;;;5031988;28;20535;-84
2021/04/27 06:43:11;;;;;;;2.50;1.77;;;11.40;86.30;;;;;;5032164;28;20512;-76
2021/04/27 06:45:38;;;;;;;2.50;2.30;;;11.50;86.00;;;;;;5032213;28;20541;-76
2021/04/27 06:48:05;;;;;;;3.63;2.63;;;11.50;85.00;;;;;;5066077;28;20492;-78
2021/04/27 06:50:32;;;;;;;4.23;1.97;;;11.60;84.80;;;;;;5114182;28;20460;-80
2021/04/27 06:52:59;;;;;;;3.13;1.87;;;11.70;83.20;;;;;;5051869;28;20537;-79
2021/04/27 06:55:25;;;;;;;1.60;1.50;;;11.70;82.40;;;;;;5032241;28;20424;-82
2021/04/27 06:57:52;;;;;;;7.43;6.10;;;11.90;82.80;;;;;;5032131;28;20544;-82
2021/04/27 07:00:19;;;;;;;5.07;3.30;;;12.10;82.30;;;;;;5031968;28;20456;-82
2021/04/27 07:02:45;;;;;;;2.27;1.87;;;12.30;82.10;;;;;;5031771;28;20505;-81
2021/04/27 07:05:14;;;;;;;2.50;2.23;;;12.30;80.80;;;;;;5031829;28;20459;-82
2021/04/27 07:07:40;;;;;;;1.40;1.30;;;12.30;78.10;;;;;;5031964;28;20425;-81
2021/04/27 07:10:10;;;;;;;2.57;1.77;;;12.40;76.20;;;;;;5031831;28;20455;-81
2021/04/27 07:12:36;;;;;;;1.77;1.63;;;12.40;75.40;;;;;;5031896;28;20420;-81
2021/04/27 07:15:02;;;;;;;3.63;1.90;;;12.40;76.00;;;;;;5031730;28;20526;-81
2021/04/27 07:17:28;;;;;;;6.03;1.70;;;12.50;76.70;;;;;;5031640;28;20477;-81
2021/04/27 07:19:56;;;;;;;1.97;1.43;;;12.60;75.90;;;;;;5031551;28;20550;-81
2021/04/27 07:22:22;;;;;;;2.00;1.80;;;12.60;74.60;;;;;;5031859;28;20488;-81
2021/04/27 07:24:48;;;;;;;2.27;1.90;;;12.60;73.90;;;;;;5031701;28;20453;-82
2021/04/27 07:27:15;;;;;;;3.70;1.83;;;12.60;74.50;;;;;;5031458;28;20507;-81
2021/04/27 07:29:41;;;;;;;6.03;1.63;;;12.60;73.10;;;;;;5031425;28;20488;-85
2021/04/27 07:32:10;;;;;;;2.43;1.90;;;12.70;72.90;;;;;;5031269;28;20468;-83
2021/04/27 07:34:36;;;;;;;1.63;1.27;;;12.70;72.00;;;;;;5031600;28;20820;-83
2021/04/27 07:37:02;;;;;;;1.70;1.60;;;12.60;71.30;;;;;;5031298;28;20445;-83
2021/04/27 07:39:28;;;;;;;2.60;2.30;;;12.60;69.80;;;;;;5031489;28;20477;-83
2021/04/27 07:41:54;;;;;;;2.07;1.53;;;12.50;71.60;;;;;;5031296;28;20450;-83
2021/04/27 07:44:21;;;;;;;1.37;1.27;;;12.50;68.70;;;;;;5031465;28;20460;-83
2021/04/27 07:46:47;;;;;;;0.90;0.90;;;12.50;67.70;;;;;;5031112;28;20478;-83
2021/04/27 07:49:13;;;;;;;1.20;1.10;;;12.40;68.30;;;;;;5031419;28;20528;-82
2021/04/27 07:51:39;;;;;;;1.67;1.20;;;12.30;69.60;;;;;;5031252;28;20484;-83
2021/04/27 07:54:06;;;;;;;1.50;1.20;;;12.20;68.50;;;;;;5031409;28;20990;-83
2021/04/27 07:56:33;;;;;;;2.07;1.20;;;12.30;68.20;;;;;;5031177;28;20468;-83
2021/04/27 07:59:03;;;;;;;2.10;1.10;;;12.20;68.10;;;;;;5030962;28;20469;-83
2021/04/27 08:01:30;;;;;;;1.50;1.20;;;12.10;68.00;;;;;;5030972;28;20477;-83
2021/04/27 08:03:56;;;;;;;2.03;1.20;;;12.10;67.50;;;;;;5030606;28;20944;-83
2021/04/27 08:06:23;;;;;;;1.50;1.13;;;12.10;67.60;;;;;;5030755;28;20544;-83
2021/04/27 08:08:49;;;;;;;1.30;1.00;;;12.10;66.30;;;;;;5031100;28;20491;-84
2021/04/27 08:11:16;;;;;;;2.40;1.63;;;12.00;65.50;;;;;;5030831;28;20489;-83
2021/04/27 08:13:43;;;;;;;1.33;1.23;;;11.90;64.80;;;;;;5030727;28;20442;-83
2021/04/27 08:16:10;;;;;;;1.43;1.20;;;11.80;65.80;;;;;;5030893;28;20453;-83
2021/04/27 08:18:37;;;;;;;2.10;1.80;;;11.60;64.80;;;;;;5030466;28;20428;-83
2021/04/27 08:21:05;;;;;;;1.60;1.30;;;11.50;65.80;;;;;;5030746;28;20435;-83
2021/04/27 08:23:31;;;;;;;2.97;1.97;;;11.30;66.30;;;;;;5030595;28;20993;-83
2021/04/27 08:25:57;;;;;;;4.90;3.60;;;11.20;67.00;;;;;;5030650;28;20424;-83
2021/04/27 08:28:24;;;;;;;1.90;1.57;;;11.10;66.30;;;;;;5030632;28;20504;-83
2021/04/27 08:30:50;;;;;;;2.50;1.83;;;11.00;66.00;;;;;;5030580;28;20473;-83
2021/04/27 08:33:17;;;;;;;1.43;1.33;;;10.90;65.90;;;;;;5030673;28;20445;-84
2021/04/27 08:35:44;;;;;;;1.60;1.10;;;10.90;65.70;;;;;;5030624;28;20536;-84
2021/04/27 08:38:11;;;;;;;1.50;1.10;;;10.80;66.10;;;;;;5030441;28;20544;-84
2021/04/27 08:40:37;;;;;;;1.33;1.10;;;10.70;67.40;;;;;;5030454;28;20485;-84
2021/04/27 08:43:03;;;;;;;2.50;1.20;;;10.70;66.60;;;;;;5030183;28;20507;-83
2021/04/27 08:45:29;;;;;;;1.57;1.20;;;10.70;67.60;;;;;;5030490;28;20453;-84
2021/04/27 08:47:56;;;;;;;1.10;0.93;;;10.70;64.60;;;;;;5028891;28;20460;-84
2021/04/27 08:50:22;;;;;;;1.17;1.07;;;10.70;62.30;;;;;;5030491;28;20532;-84
2021/04/27 08:52:49;;;;;;;1.40;1.13;;;10.60;61.60;;;;;;5030174;28;20489;-84
2021/04/27 08:55:16;;;;;;;1.40;1.30;;;10.50;62.50;;;;;;5030182;28;20452;-82
2021/04/27 08:57:43;;;;;;;3.10;1.30;;;10.50;63.70;;;;;;5030229;28;20435;-82
2021/04/27 09:00:16;;;;;;;1.67;1.20;;;10.50;65.80;;;;;;5013151;28;20490;-83
2021/04/27 09:02:45;;;;;;;1.10;1.00;;;10.50;65.70;;;;;;5029539;28;20448;-82
2021/04/27 09:05:19;;;;;;;1.83;1.57;;;10.50;64.70;;;;;;5021711;28;20424;-82
2021/04/27 09:07:52;;;;;;;1.67;1.40;;;10.40;63.40;;;;;;5116287;27;20438;-83
2021/04/27 09:10:21;;;;;;;1.40;1.30;;;10.40;63.70;;;;;;5134041;27;20431;-82
2021/04/27 09:12:50;;;;;;;2.63;2.40;;;10.40;62.90;;;;;;5133783;27;20419;-82
2021/04/27 09:15:29;;;;;;;2.90;1.57;;;10.40;62.90;;;;;;5133771;27;20431;-82
2021/04/27 09:17:55;;;;;;;2.30;1.50;;;10.30;63.40;;;;;;5133193;27;21011;-82
2021/04/27 09:20:22;;;;;;;1.43;1.33;;;10.20;63.70;;;;;;5133555;27;20484;-82
2021/04/27 09:22:49;;;;;;;1.53;1.43;;;10.20;61.80;;;;;;5133622;28;20957;-82
2021/04/27 09:25:22;;;;;;;1.30;1.20;;;10.20;62.80;;;;;;5133709;28;20427;-82
2021/04/27 09:27:48;;;;;;;1.93;1.30;;;10.20;63.90;;;;;;5039319;28;20465;-82
2021/04/27 09:30:18;;;;;;;1.20;1.10;;;10.20;61.70;;;;;;5029926;28;20861;-82
2021/04/27 09:32:46;;;;;;;1.33;1.23;;;10.20;61.90;;;;;;5029640;28;20506;-82
2021/04/27 09:35:31;;;;;;;2.30;1.30;;;10.20;60.90;;;;;;5029687;28;20424;-82
2021/04/27 09:38:16;;;;;;;1.20;0.90;;;10.10;60.20;;;;;;5029589;28;20847;-82
2021/04/27 09:40:55;;;;;;;1.53;1.43;;;10.10;59.90;;;;;;5029754;28;20547;-82
2021/04/27 09:43:26;;;;;;;2.90;2.17;;;10.10;59.60;;;;;;5029505;28;20986;-82
2021/04/27 09:45:54;;;;;;;2.87;1.80;;;10.10;58.10;;;;;;5029685;28;20453;-82
2021/04/27 09:48:36;;;;;;;1.77;1.63;;;10.00;59.20;;;;;;5029727;28;20455;-82
2021/04/27 09:51:21;;;;;;;1.87;1.67;;;10.00;61.50;;;;;;5029809;28;20801;-82
2021/04/27 09:53:54;;;;;;;1.50;1.40;;;10.00;62.50;;;;;;5029430;28;20456;-82
2021/04/27 09:56:34;;;;;;;2.47;1.33;;;10.00;61.50;;;;;;5029672;28;20449;-82
2021/04/27 09:59:03;;;;;;;3.20;1.80;;;10.00;60.60;;;;;;5029072;28;20520;-82
2021/04/27 10:01:34;;;;;;;1.20;1.10;;;10.00;61.40;;;;;;5029314;28;20565;-82
2021/04/27 10:04:02;;;;;;;1.67;1.10;;;10.10;61.10;;;;;;5029341;28;20453;-83
2021/04/27 10:06:29;;;;;;;1.37;1.20;;;10.10;60.90;;;;;;5029350;28;20944;-84
2021/04/27 10:08:57;;;;;;;1.30;1.20;;;10.10;60.80;;;;;;5029556;28;20862;-85
2021/04/27 10:11:25;;;;;;;2.83;2.63;;;10.10;61.10;;;;;;5028403;28;20785;-85
2021/04/27 10:13:52;;;;;;;1.30;1.20;;;10.10;62.00;;;;;;5029624;28;20924;-88
2021/04/27 10:16:19;;;;;;;2.53;2.33;;;10.20;60.60;;;;;;5028628;28;20445;-85
2021/04/27 10:18:45;;;;;;;2.40;2.00;;;10.20;61.20;;;;;;5068988;28;20416;-85
2021/04/27 10:21:12;;;;;;;2.57;2.33;;;10.20;61.40;;;;;;5112823;28;20476;-84
2021/04/27 10:23:40;;;;;;;2.33;2.00;;;10.10;61.50;;;;;;5112695;28;20481;-84
2021/04/27 10:26:07;;;;;;;1.90;1.70;;;10.10;62.90;;;;;;5096030;28;20998;-84
2021/04/27 10:28:56;;;;;;;1.53;1.33;;;10.20;63.30;;;;;;5031478;28;20435;-84
2021/04/27 10:31:22;;;;;;;1.60;1.50;;;10.40;60.90;;;;;;5032397;28;20488;-84
2021/04/27 10:33:58;;;;;;;1.50;1.40;;;10.40;60.70;;;;;;5032535;28;20428;-84
2021/04/27 10:36:26;;;;;;;5.07;1.53;;;10.40;61.80;;;;;;5032668;28;20449;-85
2021/04/27 10:38:56;;;;;;;1.77;1.50;;;10.40;61.20;;;;;;5032101;28;21008;-85
2021/04/27 10:41:40;;;;;;;3.20;2.40;;;10.40;60.50;;;;;;5032589;28;20453;-84
2021/04/27 10:44:07;;;;;;;1.80;1.70;;;10.40;60.50;;;;;;5032382;28;20444;-84
2021/04/27 10:47:00;;;;;;;1.67;1.30;;;10.40;61.50;;;;;;5032412;28;20428;-84
2021/04/27 10:49:37;;;;;;;2.70;1.67;;;10.40;62.80;;;;;;5032425;28;20464;-84
2021/04/27 10:52:06;;;;;;;1.40;1.30;;;10.50;63.20;;;;;;5032329;28;20424;-83
2021/04/27 10:54:35;;;;;;;2.60;1.17;;;10.50;62.20;;;;;;5032093;28;20857;-84
2021/04/27 10:57:17;;;;;;;2.23;1.40;;;10.50;62.40;;;;;;5032375;28;20424;-85
2021/04/27 10:59:55;;;;;;;1.70;1.60;;;10.50;62.70;;;;;;5032009;28;20547;-85
2021/04/27 11:02:24;;;;;;;1.33;1.23;;;10.50;61.70;;;;;;5031848;28;20460;-84
2021/04/27 11:04:53;;;;;;;1.67;1.57;;;10.50;61.20;;;;;;5021510;28;20439;-84
2021/04/27 11:07:34;;;;;;;1.67;1.57;;;10.50;61.40;;;;;;5024795;28;20460;-84
2021/04/27 11:10:21;;;;;;;1.90;1.23;;;10.60;61.20;;;;;;5028680;28;20453;-84
2021/04/27 11:12:58;;;;;;;2.80;1.60;;;10.60;61.30;;;;;;5012067;28;20428;-84
2021/04/27 11:15:28;;;;;;;1.73;1.13;;;10.60;59.80;;;;;;5011868;28;20431;-84
2021/04/27 11:17:57;;;;;;;1.70;1.60;;;10.70;58.70;;;;;;5011858;28;20503;-84
2021/04/27 11:20:45;;;;;;;1.53;1.20;;;10.70;58.60;;;;;;5014905;28;20986;-84
2021/04/27 11:23:37;;;;;;;1.70;1.60;;;10.70;58.60;;;;;;5022790;28;20445;-85
2021/04/27 11:26:25;;;;;;;1.73;1.23;;;10.50;59.10;;;;;;5031631;28;20449;-85
2021/04/27 11:28:54;;;;;;;1.67;1.57;;;10.50;59.10;;;;;;5031536;28;20457;-85
2021/04/27 11:31:22;;;;;;;1.83;1.30;;;10.60;59.80;;;;;;5027186;28;20464;-84
2021/04/27 11:33:56;;;;;;;1.30;1.20;;;10.70;58.70;;;;;;5025194;28;20468;-84
2021/04/27 11:36:35;;;;;;;1.40;1.30;;;10.70;58.70;;;;;;5032545;28;20428;-85
2021/04/27 11:39:10;;;;;;;1.50;1.17;;;10.70;58.60;;;;;;5117014;27;20423;-85
2021/04/27 11:41:46;;;;;;;1.70;1.60;;;10.70;58.80;;;;;;5135558;27;20495;-85
2021/04/27 11:44:13;;;;;;;1.77;1.67;;;10.80;58.60;;;;;;5135440;27;20444;-85
2021/04/27 11:47:14;;;;;;;1.67;1.43;;;10.80;58.30;;;;;;5135621;27;20508;-84
2021/04/27 11:49:49;;;;;;;4.10;1.50;;;10.80;58.50;;;;;;5135397;27;20491;-84
2021/04/27 11:52:16;;;;;;;1.37;1.10;;;10.80;58.70;;;;;;5135214;27;20441;-84
2021/04/27 11:54:42;;;;;;;1.23;1.13;;;10.80;58.10;;;;;;5135081;27;20890;-84
2021/04/27 11:57:16;;;;;;;1.37;1.27;;;10.80;58.10;;;;;;5135368;27;20452;-85
2021/04/27 12:02:38;;;;;;;3.20;2.90;;;11.00;58.00;;;;;;5134105;27;20479;-84
2021/04/27 12:05:05;;;;;;;2.33;1.57;;;11.00;57.80;;;;;;5134828;27;20463;-84
2021/04/27 12:07:31;;;;;;;1.57;1.47;;;11.00;58.30;;;;;;5135098;27;20430;-85
2021/04/27 12:09:59;;;;;;;2.00;1.40;;;11.10;58.40;;;;;;5118022;27;20432;-84
2021/04/27 12:12:25;;;;;;;2.30;1.23;;;11.10;58.20;;;;;;5030762;28;20471;-84
2021/04/27 12:14:55;;;;;;;1.73;1.20;;;11.10;58.40;;;;;;5031162;28;20499;-84
2021/04/27 12:17:29;;;;;;;1.23;1.00;;;11.10;58.30;;;;;;5030843;28;20424;-84
2021/04/27 12:20:07;;;;;;;1.30;1.20;;;11.20;58.50;;;;;;5030909;28;20456;-84
2021/04/27 12:22:39;;;;;;;1.20;1.10;;;11.20;58.20;;;;;;5030675;28;21015;-84
2021/04/27 12:25:23;;;;;;;1.20;1.10;;;11.20;57.10;;;;;;5030355;28;20453;-85
2021/04/27 12:27:53;;;;;;;1.40;1.10;;;11.20;56.50;;;;;;5030556;28;20445;-85
2021/04/27 12:30:23;;;;;;;1.40;1.17;;;11.20;56.30;;;;;;5030664;28;20453;-84
2021/04/27 12:33:03;;;;;;;2.17;1.20;;;11.10;56.50;;;;;;5030749;28;20547;-84
2021/04/27 12:35:31;;;;;;;1.53;1.30;;;11.20;56.70;;;;;;5030561;28;20532;-85
2021/04/27 12:38:03;;;;;;;2.37;1.70;;;11.20;57.50;;;;;;5030116;28;20488;-84
2021/04/27 12:40:32;;;;;;;1.60;1.40;;;11.20;57.90;;;;;;5029729;28;20966;-84
2021/04/27 12:43:02;;;;;;;1.33;1.20;;;11.30;57.40;;;;;;5030625;28;20446;-85
2021/04/27 12:45:45;;;;;;;1.30;1.20;;;11.30;57.50;;;;;;5030508;28;20420;-84
2021/04/27 12:48:12;;;;;;;2.37;1.60;;;11.30;57.40;;;;;;5030485;28;20845;-84
2021/04/27 12:50:48;;;;;;;1.47;1.37;;;11.30;57.50;;;;;;5029386;28;20449;-85
2021/04/27 12:53:15;;;;;;;1.60;1.50;;;11.30;57.50;;;;;;5029789;28;20958;-84
2021/04/27 12:55:49;;;;;;;1.30;1.17;;;11.30;57.30;;;;;;5030336;28;20486;-83
2021/04/27 12:58:18;;;;;;;2.20;1.30;;;11.40;56.80;;;;;;5029101;28;20476;-83
2021/04/27 13:00:53;;;;;;;1.40;1.30;;;11.30;56.60;;;;;;5030177;28;20878;-82